Time;durP1;ratioP1;P1;durP2;ratioP2;P2;SDS_P1;SDS_P2;PMS_P1;PMS_P2;Temp;Humidity;BMP_temperature;BMP_pressure;BME280_temperature;BME280_humidity;BME280_pressure;Samples;Min_cycle;Max_cycle;Signal;HPM_P1;HPM_P2
2023/08/25 00:00:37;;;;;;;6.07;4.60;;;;;;;22.71;82.05;98710.19;7256625;40;20249;31
2023/08/25 00:05:57;;;;;;;8.65;4.65;;;;;;;22.90;82.21;98722.53;7285922;40;20263;31
2023/08/25 00:11:31;;;;;;;6.03;4.47;;;;;;;23.04;80.95;98711.94;7278188;40;20241;31
2023/08/25 00:17:08;;;;;;;6.45;5.00;;;;;;;23.11;80.64;98707.91;7304622;39;20266;31
2023/08/25 00:22:41;;;;;;;6.83;5.37;;;;;;;23.17;81.56;98714.25;7260906;40;20253;31
2023/08/25 00:28:17;;;;;;;5.40;4.37;;;;;;;23.20;80.77;98709.09;7316215;39;20387;31
2023/08/25 00:33:37;;;;;;;10.57;4.78;;;;;;;23.15;81.26;98703.53;7252610;40;20405;31
2023/08/25 00:38:57;;;;;;;4.45;3.75;;;;;;;23.16;80.09;98701.62;7264867;40;20253;31
2023/08/25 00:44:34;;;;;;;3.95;3.60;;;;;;;23.16;80.56;98699.72;7324432;39;20259;31
2023/08/25 00:50:09;;;;;;;5.53;4.00;;;;;;;23.11;80.62;98679.56;7351370;39;20270;31
2023/08/25 00:55:44;;;;;;;5.80;3.90;;;;;;;23.18;80.67;98688.44;7326524;39;20279;31
2023/08/25 01:01:20;;;;;;;6.70;3.80;;;;;;;23.16;79.80;98680.47;7298437;39;20262;31
2023/08/25 01:06:55;;;;;;;5.80;3.65;;;;;;;23.17;80.15;98690.34;7263533;39;20432;31
2023/08/25 01:12:30;;;;;;;3.80;3.40;;;;;;;23.21;79.99;98687.94;7195898;40;20360;31
2023/08/25 01:18:07;;;;;;;5.15;3.50;;;;;;;23.20;79.03;98681.59;7258115;39;20319;31
2023/08/25 01:23:43;;;;;;;4.78;3.75;;;;;;;23.23;79.30;98664.56;7266344;40;20328;31
2023/08/25 01:29:19;;;;;;;4.47;3.70;;;;;;;23.16;79.21;98666.72;7214448;40;20255;31
2023/08/25 01:34:54;;;;;;;5.07;3.37;;;;;;;23.05;79.49;98664.94;7212072;40;20278;31
2023/08/25 01:40:29;;;;;;;7.00;3.90;;;;;;;23.03;79.63;98674.53;7226849;40;20249;31
2023/08/25 01:46:05;;;;;;;5.70;3.55;;;;;;;23.03;79.64;98667.13;7253943;40;20306;31
2023/08/25 01:51:40;;;;;;;3.45;3.10;;;;;;;23.02;79.44;98654.47;7255182;39;20352;31
2023/08/25 01:57:15;;;;;;;6.15;3.20;;;;;;;23.06;78.12;98655.59;7305415;39;20258;31
2023/08/25 02:03:17;;;;;;;5.75;3.95;;;;;;;23.08;78.50;98638.84;7318610;39;20256;31
2023/08/25 02:13:53;;;;;;;7.20;3.20;;;;;;;23.17;77.62;98653.75;7244579;40;21099;31
2023/08/25 02:19:29;;;;;;;5.65;3.40;;;;;;;23.05;77.42;98656.69;7251354;40;20417;31
2023/08/25 02:24:49;;;;;;;5.45;3.30;;;;;;;23.07;78.09;98660.03;7263497;40;20302;31
2023/08/25 02:30:11;;;;;;;4.35;3.45;;;;;;;23.14;77.99;98646.88;7297785;40;20324;31
2023/08/25 02:35:47;;;;;;;7.77;3.60;;;;;;;23.14;78.05;98641.38;7287410;40;20310;31
2023/08/25 02:46:08;;;;;;;3.78;3.33;;;;;;;23.15;76.99;98614.72;7326606;39;21505;31
2023/08/25 02:56:49;;;;;;;7.90;3.93;;;;;;;22.84;79.06;98630.94;7382138;39;20336;31
2023/08/25 03:07:13;;;;;;;4.70;3.85;;;;;;;22.82;79.06;98622.09;7318740;39;20271;31
2023/08/25 03:17:54;;;;;;;5.67;3.90;;;;;;;22.71;79.45;98605.78;7376523;39;21228;31
2023/08/25 03:23:14;;;;;;;8.10;4.20;;;;;;;22.66;78.80;98601.03;7378886;39;20243;31
2023/08/25 03:28:35;;;;;;;4.87;4.10;;;;;;;22.50;79.57;98590.13;7369593;39;20274;31
2023/08/25 03:34:10;;;;;;;6.85;3.85;;;;;;;22.31;80.48;98574.00;7360078;39;20240;31
2023/08/25 03:39:45;;;;;;;6.43;4.28;;;;;;;22.21;81.18;98581.28;7275379;39;20248;31
2023/08/25 03:45:18;;;;;;;4.40;3.90;;;;;;;22.18;80.80;98571.66;7246616;40;20366;31
2023/08/25 03:50:54;;;;;;;7.63;4.80;;;;;;;22.03;80.82;98557.72;7243230;40;20238;31
2023/08/25 03:56:26;;;;;;;6.10;4.40;;;;;;;21.83;81.25;98536.34;7222727;40;20257;31
2023/08/25 04:01:47;;;;;;;5.43;4.53;;;;;;;21.79;81.80;98561.81;7238835;40;20369;31
2023/08/25 04:07:22;;;;;;;7.93;4.32;;;;;;;21.92;81.44;98575.16;7267797;40;20264;31
2023/08/25 04:12:40;;;;;;;6.82;4.18;;;;;;;21.97;81.51;98600.78;7228542;40;20242;31
2023/08/25 04:18:00;;;;;;;4.75;4.28;;;;;;;21.74;81.84;98616.59;7274347;39;20322;31
2023/08/25 04:23:32;;;;;;;6.30;4.10;;;;;;;21.64;83.24;98617.28;7316086;39;21197;31
2023/08/25 04:29:09;;;;;;;6.15;4.40;;;;;;;21.74;83.04;98587.25;7235153;40;20248;31
2023/08/25 04:34:25;;;;;;;5.32;3.76;;;;;;;21.92;82.45;98566.91;7210029;40;20266;31
2023/08/25 04:40:00;;;;;;;6.62;4.22;;;;;;;22.05;82.61;98573.97;7238436;40;20338;31
2023/08/25 04:45:18;;;;;;;7.56;4.66;;;;;;;22.08;82.13;98577.03;7218949;40;20260;31
2023/08/25 04:50:52;;;;;;;5.97;4.10;;;;;;;22.20;82.23;98576.91;7218950;40;20300;31
2023/08/25 04:56:26;;;;;;;4.83;4.00;;;;;;;22.35;81.84;98649.28;7306416;39;20263;31
2023/08/25 05:02:01;;;;;;;6.65;4.35;;;;;;;22.29;82.49;98729.16;7283352;39;20246;31
2023/08/25 05:07:19;;;;;;;5.45;3.62;;;;;;;22.24;82.99;98803.22;7305648;39;20290;31
2023/08/25 05:12:52;;;;;;;5.28;3.35;;;;;;;22.22;80.75;98756.75;7276132;39;20240;31
2023/08/25 05:18:10;;;;;;;13.05;4.80;;;;;;;22.31;81.38;98744.28;7016666;40;20241;31
2023/08/25 05:23:27;;;;;;;7.18;3.76;;;;;;;22.25;82.47;98725.22;7239994;40;20242;31
2023/08/25 05:29:02;;;;;;;5.80;3.28;;;;;;;22.22;83.00;98764.16;7276672;39;20247;31
2023/08/25 05:34:35;;;;;;;6.90;3.55;;;;;;;22.11;83.56;98697.31;7291729;39;20283;31
2023/08/25 05:45:12;;;;;;;7.60;3.33;;;;;;;21.79;85.31;98704.47;7313748;39;21263;31
2023/08/25 05:55:33;;;;;;;7.07;3.70;;;;;;;21.91;84.68;98655.81;7312065;39;20384;31
2023/08/25 06:01:07;;;;;;;7.78;3.33;;;;;;;21.93;86.49;98646.28;7318713;39;20423;31
2023/08/25 06:11:29;;;;;;;8.65;3.50;;;;;;;21.98;86.09;98629.06;7336031;39;20280;31
2023/08/25 06:17:02;;;;;;;6.68;3.80;;;;;;;21.86;87.13;98677.69;7350640;39;20252;31
2023/08/25 06:22:37;;;;;;;8.40;4.00;;;;;;;21.82;87.78;98671.03;7306699;39;20252;31
2023/08/25 06:27:42;;;;;;;4.46;3.54;;;;;;;21.88;87.68;98681.03;7334075;39;20427;31
2023/08/25 06:33:18;;;;;;;5.55;4.05;;;;;;;21.99;87.40;98678.19;7356815;39;20251;31
2023/08/25 06:38:50;;;;;;;4.72;3.85;;;;;;;21.97;87.09;98660.34;7284351;39;20257;31
2023/08/25 06:44:11;;;;;;;7.80;4.07;;;;;;;22.01;87.85;98673.28;7291642;39;20283;31
2023/08/25 06:49:46;;;;;;;7.90;4.00;;;;;;;22.03;87.72;98665.63;7303813;39;20374;31
2023/08/25 06:55:18;;;;;;;7.66;4.18;;;;;;;21.99;88.03;98669.13;7314042;39;20263;31
2023/08/25 07:00:35;;;;;;;8.27;4.25;;;;;;;21.97;88.38;98688.63;7290015;39;20268;31
2023/08/25 07:06:12;;;;;;;8.43;4.20;;;;;;;21.96;88.57;98700.66;7338410;39;20251;31
2023/08/25 07:11:47;;;;;;;6.80;4.18;;;;;;;21.94;89.34;98697.31;7282645;39;20244;31
2023/08/25 07:17:19;;;;;;;8.93;4.12;;;;;;;21.80;90.11;98701.50;7247952;39;20260;31
2023/08/25 07:22:52;;;;;;;8.60;4.75;;;;;;;21.69;92.45;98737.22;7289974;39;20275;31
2023/08/25 07:33:13;;;;;;;6.36;4.72;;;;;;;21.64;93.65;98724.25;7305501;39;21182;31
2023/08/25 07:43:50;;;;;;;7.90;4.18;;;;;;;21.74;92.68;98737.31;7410017;39;21266;31
2023/08/25 07:54:14;;;;;;;5.87;3.87;;;;;;;21.73;91.63;98710.97;7331578;39;20330;31
2023/08/25 07:59:47;;;;;;;3.85;3.45;;;;;;;21.78;90.93;98705.56;7315120;39;20387;31
2023/08/25 08:10:21;;;;;;;3.03;2.72;;;;;;;21.87;90.05;98729.59;7396007;39;21177;31
2023/08/25 08:20:59;;;;;;;4.05;2.40;;;;;;;22.08;89.02;98728.00;7313821;39;20381;31
2023/08/25 08:31:38;;;;;;;4.10;2.80;;;;;;;22.32;87.34;98704.75;7237991;40;20285;31
2023/08/25 08:37:09;;;;;;;4.82;2.33;;;;;;;22.41;86.42;98702.38;7256528;39;22302;31
2023/08/25 08:42:44;;;;;;;4.57;2.37;;;;;;;22.43;86.56;98691.97;7230266;40;20246;31
2023/08/25 08:48:17;;;;;;;5.25;2.35;;;;;;;22.54;86.10;98669.03;7316445;39;20325;31
2023/08/25 08:53:53;;;;;;;5.20;2.43;;;;;;;22.59;85.06;98663.59;7288647;40;20282;31
2023/08/25 08:59:28;;;;;;;2.67;2.30;;;;;;;22.84;83.71;98649.34;7224643;40;20363;31
2023/08/25 09:05:01;;;;;;;3.40;2.20;;;;;;;23.03;82.90;98658.87;7267044;40;20277;31
2023/08/25 09:10:36;;;;;;;4.10;2.80;;;;;;;23.06;82.52;98660.28;7251252;40;20364;31
2023/08/25 09:15:56;;;;;;;4.95;2.62;;;;;;;23.12;81.41;98660.06;7240404;40;20261;31
2023/08/25 09:21:31;;;;;;;3.40;2.60;;;;;;;23.13;82.23;98628.72;7265485;40;20333;31
2023/08/25 09:27:07;;;;;;;3.92;2.30;;;;;;;23.11;81.27;98625.41;7334562;39;20410;31
2023/08/25 09:32:28;;;;;;;5.10;2.40;;;;;;;23.19;80.79;98633.19;7342784;39;20264;31
2023/08/25 09:37:47;;;;;;;3.67;2.50;;;;;;;23.21;81.11;98650.22;7356968;39;20256;31
2023/08/25 09:43:23;;;;;;;5.30;2.75;;;;;;;23.16;81.90;98668.63;7354882;39;20333;31
2023/08/25 09:48:56;;;;;;;3.47;2.77;;;;;;;23.19;81.91;98701.09;7298569;39;20241;31
2023/08/25 09:54:28;;;;;;;4.00;2.72;;;;;;;23.11;82.03;98682.31;7261377;40;21392;31
2023/08/25 10:00:05;;;;;;;2.95;2.50;;;;;;;23.15;81.54;98673.28;7306978;39;20340;31
2023/08/25 10:05:26;;;;;;;4.35;2.67;;;;;;;23.18;80.46;98707.69;7234272;40;20348;31
2023/08/25 10:11:00;;;;;;;3.15;2.55;;;;;;;23.16;80.45;98709.88;7222842;40;20316;31
2023/08/25 10:16:36;;;;;;;4.90;2.80;;;;;;;23.19;81.24;98696.44;7196635;40;20265;31
2023/08/25 10:21:57;;;;;;;5.75;2.90;;;;;;;23.21;79.90;98683.22;7251717;40;20260;31
2023/08/25 10:27:28;;;;;;;3.85;2.70;;;;;;;23.22;80.01;98690.41;7279111;39;20258;31
2023/08/25 10:33:05;;;;;;;3.90;2.87;;;;;;;23.27;79.87;98682.19;7253686;40;20253;31
2023/08/25 10:38:49;;;;;;;4.15;2.92;;;;;;;23.39;80.72;98653.72;7213087;40;20317;31
2023/08/25 10:44:36;;;;;;;3.45;2.90;;;;;;;23.54;80.22;98670.34;7179958;40;20253;31
2023/08/25 10:55:13;;;;;;;5.47;2.90;;;;;;;24.19;79.07;98648.78;7265431;40;21061;31
2023/08/25 11:05:52;;;;;;;9.77;4.30;;;;;;;24.71;77.34;98658.87;7357761;39;20291;31
2023/08/25 11:16:29;;;;;;;4.03;3.58;;;;;;;24.98;78.53;98654.03;7373867;39;21255;31
2023/08/25 11:22:11;;;;;;;5.90;4.14;;;;;;;25.06;78.78;98653.47;7294485;40;20353;31
2023/08/25 11:27:45;;;;;;;4.90;3.75;;;;;;;25.00;77.71;98662.88;7233551;40;20246;31
2023/08/25 11:33:24;;;;;;;6.16;4.08;;;;;;;24.77;80.09;98641.28;7280348;40;20260;31
2023/08/25 11:38:57;;;;;;;10.50;4.60;;;;;;;24.65;80.55;98651.72;7281489;39;20284;31
2023/08/25 11:44:18;;;;;;;7.93;4.47;;;;;;;24.50;80.46;98638.72;7212851;40;20520;31
2023/08/25 11:49:54;;;;;;;6.40;4.35;;;;;;;24.43;82.12;98645.59;7246925;40;20245;31
2023/08/25 11:55:29;;;;;;;8.30;4.82;;;;;;;24.45;82.49;98632.34;7333069;39;20248;31
2023/08/25 12:06:21;;;;;;;5.10;3.80;;;;;;;24.74;80.27;98627.22;7274348;40;21310;31
2023/08/25 12:11:56;;;;;;;6.93;3.90;;;;;;;24.84;77.73;98622.53;7282475;39;20239;31
2023/08/25 12:22:33;;;;;;;4.28;3.78;;;;;;;24.97;77.37;98638.56;7317209;39;21280;31
2023/08/25 12:28:05;;;;;;;6.18;3.53;;;;;;;25.18;76.07;98617.38;7114870;39;20314;31
2023/08/25 12:33:37;;;;;;;9.20;3.40;;;;;;;25.60;74.59;98661.28;7277976;39;20287;31
2023/08/25 12:44:14;;;;;;;3.40;2.70;;;;;;;26.09;70.07;98605.38;7284442;39;21430;31
2023/08/25 12:49:31;;;;;;;8.02;3.40;;;;;;;26.46;68.38;98587.28;7224666;40;20263;31
2023/08/25 12:54:51;;;;;;;6.07;2.77;;;;;;;26.69;66.15;98576.66;7311807;39;20259;31
2023/08/25 13:00:28;;;;;;;4.40;3.00;;;;;;;26.88;65.68;98581.25;7337936;39;20247;31
2023/08/25 13:05:45;;;;;;;4.13;2.97;;;;;;;26.99;63.84;98581.16;7261814;40;20269;31
2023/08/25 13:16:23;;;;;;;6.70;3.08;;;;;;;26.99;63.64;98570.09;7327919;39;21246;31
2023/08/25 13:21:58;;;;;;;5.30;3.08;;;;;;;27.35;62.61;98560.37;7300967;39;21254;31
2023/08/25 13:27:18;;;;;;;5.02;3.10;;;;;;;27.45;61.62;98556.69;7304345;39;20241;31
2023/08/25 13:32:54;;;;;;;3.97;3.28;;;;;;;27.58;59.57;98550.50;7275624;40;20264;31
2023/08/25 13:38:11;;;;;;;6.24;2.98;;;;;;;27.64;59.22;98566.78;7282399;39;20276;31
2023/08/25 13:48:52;;;;;;;5.30;2.80;;;;;;;27.59;59.85;98586.22;7339100;39;21132;31
2023/08/25 13:54:25;;;;;;;6.60;3.10;;;;;;;27.88;60.71;98585.34;7334139;39;20252;31
2023/08/25 13:59:57;;;;;;;4.37;3.33;;;;;;;27.94;58.50;98595.28;7338061;39;20458;31
2023/08/25 14:05:33;;;;;;;5.80;3.10;;;;;;;28.02;58.45;98592.69;7314873;39;20251;31
2023/08/25 14:10:50;;;;;;;4.95;2.80;;;;;;;28.09;58.54;98595.06;7262595;39;20495;31
2023/08/25 14:21:29;;;;;;;5.00;2.80;;;;;;;28.13;59.23;98610.03;7317888;39;21183;31
2023/08/25 14:27:04;;;;;;;5.50;2.90;;;;;;;28.03;58.01;98622.03;7261296;40;20241;31
2023/08/25 14:32:36;;;;;;;3.80;2.78;;;;;;;27.94;57.68;98612.72;7222714;40;20311;31
2023/08/25 14:38:12;;;;;;;4.03;2.60;;;;;;;27.94;56.43;98603.59;7232167;40;20253;31
2023/08/25 14:43:47;;;;;;;4.35;2.90;;;;;;;27.89;56.37;98592.56;7225652;40;20260;31
2023/08/25 14:49:22;;;;;;;5.03;2.87;;;;;;;27.97;56.74;98592.72;7265969;40;20543;31
2023/08/25 14:54:56;;;;;;;5.26;3.04;;;;;;;27.96;55.46;98573.63;7227072;40;20254;31
2023/08/25 15:00:17;;;;;;;5.40;2.72;;;;;;;27.87;55.89;98578.16;7275709;39;20259;31
2023/08/25 15:05:37;;;;;;;5.05;2.85;;;;;;;27.88;54.42;98591.72;7277930;40;20389;31
2023/08/25 15:11:13;;;;;;;4.40;3.10;;;;;;;27.94;55.33;98573.94;7287986;39;20263;31
2023/08/25 15:16:30;;;;;;;4.03;2.90;;;;;;;27.98;55.04;98577.75;7235433;40;21143;31
2023/08/25 15:22:05;;;;;;;6.72;3.20;;;;;;;28.01;55.54;98568.03;7294440;40;20240;31
2023/08/25 15:27:41;;;;;;;6.20;2.80;;;;;;;28.02;55.92;98561.37;7250330;40;20393;31
2023/08/25 15:33:16;;;;;;;4.60;2.70;;;;;;;28.17;55.93;98562.03;7293852;39;20252;31
2023/08/25 15:38:52;;;;;;;7.10;3.35;;;;;;;28.13;54.68;98558.19;7300368;39;20509;31
2023/08/25 15:44:24;;;;;;;6.05;3.40;;;;;;;28.07;57.11;98559.38;7264309;39;20488;31
2023/08/25 15:49:59;;;;;;;5.12;3.30;;;;;;;28.18;56.97;98560.06;7283669;39;20353;31
2023/08/25 15:55:16;;;;;;;5.30;3.36;;;;;;;28.26;56.35;98566.94;7285185;39;20260;31
2023/08/25 16:01:08;;;;;;;9.80;3.45;;;;;;;28.08;55.93;98557.41;7321759;39;21466;31
2023/08/25 16:06:39;;;;;;;4.12;3.10;;;;;;;27.92;57.49;98544.84;7233028;40;20270;31
2023/08/25 16:11:59;;;;;;;5.60;3.80;;;;;;;27.86;56.44;98532.19;7294012;39;20263;31
2023/08/25 16:17:35;;;;;;;6.73;3.53;;;;;;;27.71;56.56;98527.66;7326392;39;20437;31
2023/08/25 16:22:55;;;;;;;5.47;3.80;;;;;;;27.53;58.61;98520.09;7259445;40;20277;31
2023/08/25 16:28:16;;;;;;;6.62;3.50;;;;;;;27.49;58.43;98532.88;7303260;39;20303;31
2023/08/25 16:33:51;;;;;;;7.32;3.40;;;;;;;27.47;58.35;98526.78;7319833;39;20250;31
2023/08/25 16:39:12;;;;;;;4.25;3.50;;;;;;;27.43;59.45;98522.94;7325849;39;20252;31
2023/08/25 16:44:44;;;;;;;8.87;3.93;;;;;;;27.31;59.94;98532.47;7335781;39;20472;31
2023/08/25 16:55:22;;;;;;;6.60;3.70;;;;;;;27.18;61.27;98524.00;7341288;39;20363;31
2023/08/25 17:05:58;;;;;;;4.62;3.53;;;;;;;27.16;61.11;98520.72;7341741;39;21153;31
2023/08/25 17:16:36;;;;;;;5.32;3.40;;;;;;;27.08;61.96;98513.84;7328088;39;20542;31
2023/08/25 17:21:54;;;;;;;8.13;4.20;;;;;;;27.02;62.65;98506.72;7316879;39;20272;31
2023/08/25 17:27:14;;;;;;;4.43;3.65;;;;;;;27.00;62.95;98491.53;7310793;39;20395;31
2023/08/25 17:37:52;;;;;;;5.25;3.78;;;;;;;26.95;62.58;98497.09;7328847;39;21109;31
2023/08/25 17:43:23;;;;;;;6.95;4.10;;;;;;;26.85;63.71;98493.28;7341268;39;20271;31
2023/08/25 17:54:00;;;;;;;7.03;4.50;;;;;;;26.67;64.52;98496.75;7293291;40;21055;31
2023/08/25 17:59:21;;;;;;;6.65;4.62;;;;;;;26.62;64.57;98487.66;7316383;39;20248;31
2023/08/25 18:04:52;;;;;;;8.43;4.53;;;;;;;26.57;65.05;98490.47;7328922;39;20268;31
2023/08/25 18:10:32;;;;;;;6.95;3.85;;;;;;;26.44;66.35;98484.47;7315658;39;20244;31
2023/08/25 18:16:08;;;;;;;9.35;4.10;;;;;;;26.27;66.19;98483.22;7286031;39;20431;31
2023/08/25 18:21:25;;;;;;;7.20;4.20;;;;;;;26.18;66.00;98488.47;7294558;39;21329;31
2023/08/25 18:26:58;;;;;;;6.50;4.00;;;;;;;26.11;67.18;98487.94;7260675;40;21178;31
2023/08/25 18:32:15;;;;;;;6.15;4.45;;;;;;;26.11;67.26;98482.41;7305731;39;20279;31
2023/08/25 18:37:32;;;;;;;6.03;4.37;;;;;;;26.02;67.52;98482.19;7322463;39;20286;31
2023/08/25 18:48:10;;;;;;;6.45;4.87;;;;;;;25.77;69.12;98489.78;7340347;39;21222;31
2023/08/25 18:58:50;;;;;;;5.57;4.27;;;;;;;25.45;69.07;98502.00;7304843;39;21701;31
2023/08/25 19:09:27;;;;;;;5.18;4.40;;;;;;;25.27;69.70;98521.09;7300749;39;21767;31
2023/08/25 19:19:48;;;;;;;7.22;4.55;;;;;;;25.13;70.70;98518.06;7331557;39;21118;31
2023/08/25 19:30:27;;;;;;;9.70;4.50;;;;;;;24.97;70.62;98539.28;7383826;39;21218;31
2023/08/25 19:36:08;;;;;;;7.80;4.60;;;;;;;24.96;70.83;98543.19;7340840;39;20238;31
2023/08/25 19:41:28;;;;;;;5.85;4.18;;;;;;;24.90;70.47;98524.97;7278093;39;20257;31
2023/08/25 19:47:05;;;;;;;9.07;4.15;;;;;;;24.93;70.96;98520.81;7274183;39;20322;31
2023/08/25 19:52:25;;;;;;;6.00;4.25;;;;;;;24.95;71.58;98521.38;7293071;39;20279;31
2023/08/25 19:58:01;;;;;;;10.55;5.10;;;;;;;24.94;71.26;98523.31;7333203;39;20485;31
2023/08/25 20:03:37;;;;;;;6.85;5.40;;;;;;;24.93;71.92;98509.78;7284772;39;20440;31
2023/08/25 20:08:54;;;;;;;7.30;4.72;;;;;;;24.89;72.20;98531.56;7089637;40;20229;31
2023/08/25 20:14:29;;;;;;;8.07;4.32;;;;;;;24.86;72.72;98529.37;7308472;39;20275;31
2023/08/25 20:20:05;;;;;;;8.00;4.95;;;;;;;24.84;72.02;98539.81;7248479;40;20264;31
2023/08/25 20:25:25;;;;;;;8.60;5.18;;;;;;;24.71;72.62;98510.03;7221046;40;20460;31
2023/08/25 20:36:06;;;;;;;8.45;5.00;;;;;;;24.60;73.25;98467.03;7277349;40;20415;31
2023/08/25 20:41:26;;;;;;;5.64;4.22;;;;;;;24.55;74.12;98459.59;7283871;39;20417;31
2023/08/25 20:47:01;;;;;;;9.35;4.43;;;;;;;24.56;73.67;98449.41;7337762;39;20337;31
2023/08/25 20:52:35;;;;;;;5.65;4.68;;;;;;;24.37;74.18;98464.81;7317065;39;20533;31
2023/08/25 20:57:55;;;;;;;5.63;4.07;;;;;;;24.37;75.05;98454.63;7318707;39;20271;31
2023/08/25 21:03:16;;;;;;;9.27;4.57;;;;;;;24.36;73.65;98438.34;7328029;39;20243;31
2023/08/25 21:08:48;;;;;;;8.07;4.72;;;;;;;24.34;75.45;98499.25;7302582;39;20268;31
2023/08/25 21:19:27;;;;;;;10.40;5.00;;;;;;;23.80;80.85;98534.56;7321703;39;21144;31
2023/08/25 21:30:04;;;;;;;8.64;4.62;;;;;;;23.82;80.81;98548.91;7292502;39;21274;31
2023/08/25 21:35:39;;;;;;;5.25;3.20;;;;;;;23.80;81.24;98535.38;7292880;39;20280;31
2023/08/25 21:41:09;;;;;;;5.55;3.25;;;;;;;23.83;78.93;98539.53;7228271;40;20362;31
2023/08/25 21:46:45;;;;;;;3.65;2.65;;;;;;;23.85;78.78;98550.28;7280639;39;20276;31
2023/08/25 21:57:22;;;;;;;5.20;3.20;;;;;;;23.85;79.83;98573.13;7275110;39;22217;31
2023/08/25 22:02:58;;;;;;;7.47;3.83;;;;;;;23.67;80.44;98573.56;7290692;40;20249;31
2023/08/25 22:08:18;;;;;;;7.13;3.70;;;;;;;23.54;82.17;98590.56;7250629;40;20303;31
2023/08/25 22:13:53;;;;;;;7.15;4.10;;;;;;;23.45;82.64;98581.97;7213497;40;20256;31
2023/08/25 22:19:26;;;;;;;5.50;3.90;;;;;;;23.45;83.44;98570.97;7204022;40;20277;31
2023/08/25 22:30:03;;;;;;;5.50;3.90;;;;;;;23.64;81.93;98541.09;7218100;40;21202;31
2023/08/25 22:35:19;;;;;;;6.32;3.88;;;;;;;23.64;81.12;98574.94;7302278;39;20278;31
2023/08/25 22:40:50;;;;;;;6.35;3.95;;;;;;;23.65;81.82;98560.06;7357939;39;20251;31
2023/08/25 22:51:11;;;;;;;6.40;3.90;;;;;;;23.69;81.79;98587.91;7288612;39;20282;31
2023/08/25 23:01:53;;;;;;;4.57;3.28;;;;;;;23.49;83.21;98587.75;7276224;39;20324;31
2023/08/25 23:07:27;;;;;;;5.20;3.33;;;;;;;23.51;82.30;98585.59;7356328;39;20259;31
2023/08/25 23:12:46;;;;;;;4.62;3.20;;;;;;;23.42;83.56;98581.66;7336240;39;20402;31
2023/08/25 23:18:22;;;;;;;4.40;3.42;;;;;;;23.49;82.69;98579.50;7356570;39;21056;31
2023/08/25 23:23:57;;;;;;;3.35;2.90;;;;;;;23.41;83.10;98569.81;7285445;40;20245;31
2023/08/25 23:29:32;;;;;;;6.70;3.45;;;;;;;23.32;84.23;98549.38;7255473;40;20268;31
2023/08/25 23:35:08;;;;;;;6.35;3.60;;;;;;;23.21;84.15;98542.19;7230309;40;20238;31
2023/08/25 23:40:29;;;;;;;4.47;3.77;;;;;;;23.23;83.48;98540.81;7243025;40;20503;31
2023/08/25 23:46:04;;;;;;;5.00;3.90;;;;;;;23.22;83.64;98566.63;7249330;40;20251;31
2023/08/25 23:51:38;;;;;;;7.63;4.40;;;;;;;23.28;82.69;98573.84;7247827;40;20260;31
2023/08/25 23:57:13;;;;;;;4.85;4.00;;;;;;;23.27;82.95;98590.59;7254778;40;21986;31
